createdAt,value
2024-02-26T00:00:39.852Z,2.80
2024-02-26T00:03:06.571Z,2.70
2024-02-26T00:05:33.429Z,2.70
2024-02-26T00:08:02.648Z,2.70
2024-02-26T00:10:31.262Z,2.80
2024-02-26T00:12:57.998Z,2.80
2024-02-26T00:15:25.736Z,2.80
2024-02-26T00:17:52.567Z,2.80
2024-02-26T00:20:19.384Z,2.70
2024-02-26T00:22:46.004Z,2.70
2024-02-26T00:25:13.672Z,2.60
2024-02-26T00:27:42.496Z,2.60
2024-02-26T00:30:09.887Z,2.50
2024-02-26T00:32:36.708Z,2.60
2024-02-26T00:35:03.529Z,2.60
2024-02-26T00:37:30.303Z,2.60
2024-02-26T00:39:57.070Z,2.50
2024-02-26T00:42:24.185Z,2.50
2024-02-26T00:44:50.884Z,2.50
2024-02-26T00:47:17.622Z,2.50
2024-02-26T00:49:44.333Z,2.40
2024-02-26T00:52:10.986Z,2.40
2024-02-26T00:54:37.608Z,2.30
2024-02-26T00:57:04.315Z,2.30
2024-02-26T00:59:30.972Z,2.30
2024-02-26T01:01:59.622Z,2.30
2024-02-26T01:04:26.320Z,2.30
2024-02-26T01:06:53.059Z,2.30
2024-02-26T01:09:19.923Z,2.30
2024-02-26T01:11:48.005Z,2.30
2024-02-26T01:14:14.747Z,2.30
2024-02-26T01:16:41.415Z,2.20
2024-02-26T01:19:08.458Z,2.20
2024-02-26T01:21:35.359Z,2.20
2024-02-26T01:24:02.035Z,2.20
2024-02-26T01:26:28.716Z,2.20
2024-02-26T01:28:56.640Z,2.20
2024-02-26T01:31:23.324Z,2.20
2024-02-26T01:33:50.159Z,2.10
2024-02-26T01:36:16.904Z,2.10
2024-02-26T01:38:43.579Z,2.10
2024-02-26T01:41:14.461Z,2.00
2024-02-26T01:43:41.390Z,2.00
2024-02-26T01:46:14.739Z,2.00
2024-02-26T01:48:47.084Z,2.00
2024-02-26T01:51:15.906Z,1.90
2024-02-26T01:53:42.797Z,1.90
2024-02-26T01:56:09.622Z,1.80
2024-02-26T01:58:37.230Z,1.80
2024-02-26T02:01:04.389Z,1.80
2024-02-26T02:03:31.803Z,1.80
2024-02-26T02:05:58.693Z,1.80
2024-02-26T02:08:25.836Z,1.80
2024-02-26T02:10:52.823Z,1.80
2024-02-26T02:13:19.763Z,1.80
2024-02-26T02:15:46.435Z,1.80
2024-02-26T02:18:13.160Z,1.80
2024-02-26T02:20:39.980Z,1.80
2024-02-26T02:23:06.770Z,1.80
2024-02-26T02:25:33.538Z,1.80
2024-02-26T02:28:00.223Z,1.70
2024-02-26T02:30:30.961Z,1.70
2024-02-26T02:33:02.044Z,1.70
2024-02-26T02:35:28.855Z,1.70
2024-02-26T02:37:57.092Z,1.60
2024-02-26T02:40:23.762Z,1.60
2024-02-26T02:42:50.412Z,1.60
2024-02-26T02:45:17.335Z,1.50
2024-02-26T02:47:44.095Z,1.50
2024-02-26T02:50:10.961Z,1.50
2024-02-26T02:52:37.589Z,1.50
2024-02-26T02:55:04.867Z,1.50
2024-02-26T02:57:32.250Z,1.50
2024-02-26T02:59:58.900Z,1.50
2024-02-26T03:02:28.535Z,1.40
2024-02-26T03:04:55.227Z,1.40
2024-02-26T03:07:22.029Z,1.40
2024-02-26T03:09:48.800Z,1.40
2024-02-26T03:12:15.599Z,1.40
2024-02-26T03:14:42.423Z,1.40
2024-02-26T03:17:09.166Z,1.40
2024-02-26T03:19:36.234Z,1.40
2024-02-26T03:22:03.414Z,1.40
2024-02-26T03:24:30.268Z,1.40
2024-02-26T03:26:57.427Z,1.40
2024-02-26T03:29:24.220Z,1.40
2024-02-26T03:31:50.861Z,1.40
2024-02-26T03:34:18.680Z,1.50
2024-02-26T03:36:45.410Z,1.50
2024-02-26T03:39:12.699Z,1.50
2024-02-26T03:41:39.556Z,1.50
2024-02-26T03:44:06.340Z,1.50
2024-02-26T03:46:32.987Z,1.50
2024-02-26T03:48:59.908Z,1.40
2024-02-26T03:51:27.662Z,1.50
2024-02-26T03:53:54.362Z,1.40
2024-02-26T03:56:21.721Z,1.50
2024-02-26T03:58:48.400Z,1.50
2024-02-26T04:01:15.073Z,1.50
2024-02-26T04:03:41.763Z,1.50
2024-02-26T04:06:11.763Z,1.50
2024-02-26T04:08:38.997Z,1.60
2024-02-26T04:11:08.782Z,1.60
2024-02-26T04:13:35.664Z,1.70
2024-02-26T04:16:03.261Z,1.70
2024-02-26T04:18:30.096Z,1.70
2024-02-26T04:20:57.963Z,1.80
2024-02-26T04:23:24.850Z,1.90
2024-02-26T04:25:51.587Z,1.90
2024-02-26T04:28:18.282Z,2.00
2024-02-26T04:30:44.972Z,2.00
2024-02-26T04:33:11.737Z,2.00
2024-02-26T04:35:38.621Z,2.00
2024-02-26T04:38:05.418Z,2.00
2024-02-26T04:40:32.162Z,2.10
2024-02-26T04:42:58.801Z,2.10
2024-02-26T04:45:25.624Z,2.10
2024-02-26T04:47:52.461Z,2.10
2024-02-26T04:50:19.242Z,2.20
2024-02-26T04:52:45.897Z,2.20
2024-02-26T04:55:12.768Z,2.20
2024-02-26T04:57:39.381Z,2.30
2024-02-26T05:00:06.977Z,2.30
2024-02-26T05:02:34.560Z,2.30
2024-02-26T05:05:01.234Z,2.30
2024-02-26T05:07:27.896Z,2.40
2024-02-26T05:09:54.604Z,2.40
2024-02-26T05:12:21.257Z,2.40
2024-02-26T05:14:47.955Z,2.40
2024-02-26T05:17:14.645Z,2.40
2024-02-26T05:19:41.391Z,2.30
2024-02-26T05:22:08.065Z,2.30
2024-02-26T05:24:34.746Z,2.30
2024-02-26T05:27:01.709Z,2.30
2024-02-26T05:29:28.430Z,2.30
2024-02-26T05:31:55.376Z,2.30
2024-02-26T05:34:23.240Z,2.30
2024-02-26T05:36:50.094Z,2.40
2024-02-26T05:39:19.735Z,2.40
2024-02-26T05:41:47.747Z,2.40
2024-02-26T05:44:15.701Z,2.40
2024-02-26T05:46:43.181Z,2.40
2024-02-26T05:49:09.935Z,2.40
2024-02-26T05:51:36.652Z,2.40
2024-02-26T05:54:03.473Z,2.40
2024-02-26T05:56:30.169Z,2.50
2024-02-26T05:58:56.861Z,2.40
2024-02-26T06:01:24.081Z,2.40
2024-02-26T06:03:50.982Z,2.40
2024-02-26T06:06:18.898Z,2.40
2024-02-26T06:08:45.830Z,2.40
2024-02-26T06:11:12.551Z,2.40
2024-02-26T06:13:39.215Z,2.40
2024-02-26T06:16:06.052Z,2.40
2024-02-26T06:18:33.620Z,2.40
2024-02-26T06:21:00.699Z,2.40
2024-02-26T06:23:27.534Z,2.40
2024-02-26T06:25:54.262Z,2.40
2024-02-26T06:28:20.951Z,2.40
2024-02-26T06:30:47.655Z,2.40
2024-02-26T06:33:15.395Z,2.40
2024-02-26T06:35:42.872Z,2.40
2024-02-26T06:38:10.339Z,2.50
2024-02-26T06:40:36.983Z,2.50
2024-02-26T06:43:03.786Z,2.50
2024-02-26T06:45:30.649Z,2.50
2024-02-26T06:47:57.715Z,2.50
2024-02-26T06:50:24.467Z,2.50
2024-02-26T06:52:51.144Z,2.60
2024-02-26T06:55:18.233Z,2.60
2024-02-26T06:57:44.894Z,2.60
2024-02-26T07:00:15.775Z,2.60
2024-02-26T07:02:42.783Z,2.60
2024-02-26T07:05:10.011Z,2.70
2024-02-26T07:07:37.083Z,2.70
2024-02-26T07:10:04.671Z,2.80
2024-02-26T07:12:31.829Z,2.80
2024-02-26T07:14:59.439Z,2.90
2024-02-26T07:17:26.233Z,2.90
2024-02-26T07:19:52.974Z,3.00
2024-02-26T07:22:19.645Z,3.00
2024-02-26T07:24:46.549Z,3.00
2024-02-26T07:27:13.348Z,3.10
2024-02-26T07:29:40.252Z,3.20
2024-02-26T07:32:07.331Z,3.20
2024-02-26T07:34:34.127Z,3.30
2024-02-26T07:37:00.927Z,3.40
2024-02-26T07:39:27.707Z,3.40
2024-02-26T07:41:54.775Z,3.50
2024-02-26T07:44:21.862Z,3.60
2024-02-26T07:46:48.583Z,3.60
2024-02-26T07:49:15.934Z,3.70
2024-02-26T07:51:43.031Z,3.70
2024-02-26T07:54:09.845Z,3.80
2024-02-26T07:56:36.640Z,3.80
2024-02-26T07:59:03.560Z,3.90
2024-02-26T08:01:30.246Z,4.00
2024-02-26T08:03:57.162Z,4.00
2024-02-26T08:06:25.436Z,4.00
2024-02-26T08:08:52.124Z,4.00
2024-02-26T08:11:18.948Z,4.00
2024-02-26T08:13:45.773Z,4.10
2024-02-26T08:16:13.219Z,4.00
2024-02-26T08:18:40.151Z,4.10
2024-02-26T08:21:07.029Z,4.10
2024-02-26T08:23:33.801Z,4.10
2024-02-26T08:26:00.507Z,4.20
2024-02-26T08:28:27.154Z,4.20
2024-02-26T08:30:53.821Z,4.20
2024-02-26T08:33:20.791Z,4.30
2024-02-26T08:35:47.582Z,4.30
2024-02-26T08:38:14.282Z,4.40
2024-02-26T08:40:40.961Z,4.40
2024-02-26T08:43:07.655Z,4.50
2024-02-26T08:45:34.458Z,4.50
2024-02-26T08:48:01.301Z,4.60
2024-02-26T08:50:28.055Z,4.60
2024-02-26T08:52:54.922Z,4.70
2024-02-26T08:55:21.687Z,4.80
2024-02-26T08:57:49.552Z,4.90
2024-02-26T09:00:18.742Z,4.90
2024-02-26T09:02:45.678Z,5.00
2024-02-26T09:05:12.524Z,5.00
2024-02-26T09:07:39.365Z,5.10
2024-02-26T09:10:07.119Z,5.20
2024-02-26T09:12:33.851Z,5.30
2024-02-26T09:15:00.835Z,5.30
2024-02-26T09:17:27.585Z,5.40
2024-02-26T09:19:54.327Z,5.50
2024-02-26T09:22:21.079Z,5.50
2024-02-26T09:24:47.794Z,5.60
2024-02-26T09:27:14.562Z,5.60
2024-02-26T09:29:41.216Z,5.70
2024-02-26T09:32:08.008Z,5.60
2024-02-26T09:34:35.130Z,5.70
2024-02-26T09:37:08.571Z,5.70
2024-02-26T09:39:42.468Z,5.80
2024-02-26T09:42:13.840Z,5.90
2024-02-26T09:44:43.232Z,5.90
2024-02-26T09:47:12.895Z,6.10
2024-02-26T09:49:39.990Z,6.20
2024-02-26T09:52:09.457Z,6.40
2024-02-26T09:54:36.191Z,6.60
2024-02-26T09:57:05.337Z,6.70
2024-02-26T09:59:42.372Z,6.80
2024-02-26T10:02:12.958Z,7.00
2024-02-26T10:04:41.258Z,7.20
2024-02-26T10:07:13.296Z,7.30
2024-02-26T10:09:40.911Z,7.40
2024-02-26T10:12:11.693Z,7.70
2024-02-26T10:14:38.523Z,7.80
2024-02-26T10:17:09.489Z,7.90
2024-02-26T10:19:38.645Z,8.00
2024-02-26T10:22:06.331Z,8.00
2024-02-26T10:24:33.064Z,8.00
2024-02-26T10:26:59.919Z,7.90
2024-02-26T10:29:26.924Z,7.90
2024-02-26T10:31:54.008Z,7.80
2024-02-26T10:34:21.467Z,7.80
2024-02-26T10:36:53.257Z,7.90
2024-02-26T10:39:21.789Z,8.00
2024-02-26T10:41:49.126Z,8.10
2024-02-26T10:44:18.653Z,8.10
2024-02-26T10:46:49.870Z,8.20
2024-02-26T10:49:19.887Z,8.10
2024-02-26T10:51:58.350Z,8.10
2024-02-26T10:54:28.720Z,8.10
2024-02-26T10:56:58.437Z,8.10
2024-02-26T10:59:25.414Z,8.20
2024-02-26T11:01:52.907Z,8.30
2024-02-26T11:04:20.521Z,8.30
2024-02-26T11:06:48.815Z,8.30
2024-02-26T11:09:17.010Z,8.30
2024-02-26T11:11:43.998Z,8.30
2024-02-26T11:14:11.399Z,8.30
2024-02-26T11:16:41.309Z,8.30
2024-02-26T11:19:11.370Z,8.40
2024-02-26T11:21:44.464Z,8.50
2024-02-26T11:24:17.206Z,8.50
2024-02-26T11:26:59.606Z,8.50
2024-02-26T11:29:35.688Z,8.40
2024-02-26T11:32:02.813Z,8.50
2024-02-26T11:34:30.348Z,8.50
2024-02-26T11:36:57.545Z,8.50
2024-02-26T11:39:25.351Z,8.60
2024-02-26T11:41:52.484Z,8.50
2024-02-26T11:44:30.921Z,8.50
2024-02-26T11:46:58.005Z,8.40
2024-02-26T11:49:32.236Z,8.50
2024-02-26T11:52:04.231Z,8.50
2024-02-26T11:54:50.179Z,8.50
2024-02-26T11:57:39.661Z,8.50
2024-02-26T12:00:15.573Z,8.60
2024-02-26T12:02:53.121Z,8.60
2024-02-26T12:05:24.892Z,8.60
2024-02-26T12:07:56.449Z,8.60
2024-02-26T12:10:27.432Z,8.60
2024-02-26T12:13:18.827Z,8.60
2024-02-26T12:15:56.822Z,8.80
2024-02-26T12:18:24.079Z,9.00
2024-02-26T12:21:05.024Z,9.20
2024-02-26T12:23:32.037Z,9.30
2024-02-26T12:26:05.455Z,9.50
2024-02-26T12:28:34.265Z,9.70
2024-02-26T12:31:01.539Z,9.90
2024-02-26T12:33:29.632Z,10.20
2024-02-26T12:35:56.781Z,10.50
2024-02-26T12:38:23.647Z,10.90
2024-02-26T12:40:51.304Z,11.30
2024-02-26T12:43:18.176Z,11.30
2024-02-26T12:45:47.337Z,11.60
2024-02-26T12:48:15.283Z,11.70
2024-02-26T12:50:48.193Z,11.80
2024-02-26T12:53:15.070Z,11.90
2024-02-26T12:55:43.085Z,11.80
2024-02-26T12:58:10.067Z,11.60
2024-02-26T13:00:37.388Z,11.40
2024-02-26T13:03:04.684Z,11.00
2024-02-26T13:05:32.669Z,10.90
2024-02-26T13:07:59.640Z,10.70
2024-02-26T13:10:26.538Z,10.50
2024-02-26T13:12:53.982Z,10.30
2024-02-26T13:15:23.124Z,10.10
2024-02-26T13:17:51.083Z,9.90
2024-02-26T13:20:31.806Z,9.60
2024-02-26T13:23:07.470Z,9.40
2024-02-26T13:25:36.015Z,9.30
2024-02-26T13:28:19.154Z,9.20
2024-02-26T13:30:53.470Z,9.10
2024-02-26T13:33:20.593Z,9.00
2024-02-26T13:35:47.504Z,9.00
2024-02-26T13:38:14.276Z,8.90
2024-02-26T13:40:41.346Z,8.80
2024-02-26T13:43:08.046Z,8.80
2024-02-26T13:45:39.432Z,8.80
2024-02-26T13:48:08.673Z,8.80
2024-02-26T13:50:35.489Z,8.70
2024-02-26T13:53:02.225Z,8.70
2024-02-26T13:55:30.895Z,8.60
2024-02-26T13:57:58.159Z,8.50
2024-02-26T14:00:28.583Z,8.50
2024-02-26T14:02:55.619Z,8.50
2024-02-26T14:05:22.302Z,8.40
2024-02-26T14:07:52.215Z,8.40
2024-02-26T14:10:20.464Z,8.30
2024-02-26T14:12:47.450Z,8.20
2024-02-26T14:15:14.197Z,8.10
2024-02-26T14:17:40.933Z,8.00
2024-02-26T14:20:10.069Z,8.00
2024-02-26T14:22:37.069Z,8.00
2024-02-26T14:25:03.974Z,7.90
2024-02-26T14:27:30.726Z,7.90
2024-02-26T14:29:57.497Z,7.90
2024-02-26T14:32:24.209Z,7.80
2024-02-26T14:34:50.955Z,7.80
2024-02-26T14:37:17.689Z,7.70
2024-02-26T14:39:44.472Z,7.70
2024-02-26T14:42:11.205Z,7.70
2024-02-26T14:44:37.841Z,7.60
2024-02-26T14:47:04.972Z,7.60
2024-02-26T14:49:32.929Z,7.60
2024-02-26T14:51:59.826Z,7.60
2024-02-26T14:54:26.615Z,7.60
2024-02-26T14:56:53.318Z,7.60
2024-02-26T14:59:19.968Z,7.60
2024-02-26T15:01:48.034Z,7.60
2024-02-26T15:04:15.312Z,7.60
2024-02-26T15:06:42.249Z,7.50
2024-02-26T15:09:09.203Z,7.50
2024-02-26T15:11:40.449Z,7.40
2024-02-26T15:14:09.063Z,7.40
2024-02-26T15:16:35.686Z,7.30
2024-02-26T15:19:03.717Z,7.20
2024-02-26T15:21:30.944Z,7.20
2024-02-26T15:24:04.705Z,7.20
2024-02-26T15:26:35.334Z,7.20
2024-02-26T15:29:02.240Z,7.10
2024-02-26T15:31:28.898Z,7.20
2024-02-26T15:33:55.804Z,7.10
2024-02-26T15:36:22.924Z,7.10
2024-02-26T15:38:49.695Z,7.10
2024-02-26T15:41:16.370Z,7.10
2024-02-26T15:43:43.043Z,7.10
2024-02-26T15:46:09.924Z,7.00
2024-02-26T15:48:39.849Z,7.00
2024-02-26T15:51:06.856Z,7.00
2024-02-26T15:53:33.689Z,6.90
2024-02-26T15:56:01.217Z,6.90
2024-02-26T15:58:27.920Z,6.80
2024-02-26T16:00:54.612Z,6.80
2024-02-26T16:03:21.369Z,6.80
2024-02-26T16:05:48.399Z,6.70
2024-02-26T16:08:22.310Z,6.70
2024-02-26T16:10:49.650Z,6.60
2024-02-26T16:13:20.797Z,6.50
2024-02-26T16:16:05.568Z,6.50
2024-02-26T16:18:34.330Z,6.40
2024-02-26T16:21:01.462Z,6.30
2024-02-26T16:23:28.724Z,6.30
2024-02-26T16:25:55.404Z,6.30
2024-02-26T16:28:26.318Z,6.20
2024-02-26T16:30:53.874Z,6.20
2024-02-26T16:33:20.901Z,6.10
2024-02-26T16:35:47.908Z,6.00
2024-02-26T16:38:14.854Z,6.00
2024-02-26T16:40:42.272Z,6.00
2024-02-26T16:43:09.653Z,5.90
2024-02-26T16:45:36.674Z,5.80
2024-02-26T16:48:04.373Z,5.80
2024-02-26T16:50:31.218Z,5.80
2024-02-26T16:52:58.407Z,5.70
2024-02-26T16:55:28.119Z,5.70
2024-02-26T16:57:56.322Z,5.60
2024-02-26T17:00:23.503Z,5.60
2024-02-26T17:02:50.720Z,5.60
2024-02-26T17:05:17.824Z,5.50
2024-02-26T17:07:46.140Z,5.50
2024-02-26T17:10:13.791Z,5.40
2024-02-26T17:12:40.539Z,5.40
2024-02-26T17:15:08.277Z,5.30
2024-02-26T17:17:35.447Z,5.30
2024-02-26T17:20:02.796Z,5.20
2024-02-26T17:22:29.560Z,5.20
2024-02-26T17:24:56.217Z,5.20
2024-02-26T17:27:23.017Z,5.20
2024-02-26T17:29:49.777Z,5.10
2024-02-26T17:32:16.773Z,5.10
2024-02-26T17:34:43.875Z,5.10
2024-02-26T17:37:10.706Z,5.10
2024-02-26T17:39:37.488Z,5.10
2024-02-26T17:42:04.300Z,5.00
2024-02-26T17:44:38.802Z,5.00
2024-02-26T17:47:06.228Z,5.00
2024-02-26T17:49:33.500Z,5.00
2024-02-26T17:52:00.372Z,5.00
2024-02-26T17:54:28.942Z,5.00
2024-02-26T17:56:56.188Z,5.00
2024-02-26T17:59:23.004Z,4.90
2024-02-26T18:01:49.772Z,4.90
2024-02-26T18:04:16.501Z,4.90
2024-02-26T18:06:44.569Z,4.90
2024-02-26T18:09:11.660Z,4.90
2024-02-26T18:11:39.317Z,4.90
2024-02-26T18:14:06.067Z,4.80
2024-02-26T18:16:33.541Z,4.80
2024-02-26T18:19:00.447Z,4.80
2024-02-26T18:21:27.268Z,4.80
2024-02-26T18:23:54.378Z,4.70
2024-02-26T18:26:22.754Z,4.70
2024-02-26T18:28:50.345Z,4.70
2024-02-26T18:31:18.445Z,4.60
2024-02-26T18:33:45.434Z,4.50
2024-02-26T18:36:12.384Z,4.50
2024-02-26T18:38:40.850Z,4.50
2024-02-26T18:41:08.307Z,4.40
2024-02-26T18:43:35.500Z,4.40
2024-02-26T18:46:03.088Z,4.30
2024-02-26T18:48:30.712Z,4.30
2024-02-26T18:50:58.057Z,4.20
2024-02-26T18:53:24.689Z,4.20
2024-02-26T18:55:51.399Z,4.20
2024-02-26T18:58:18.191Z,4.10
2024-02-26T19:00:44.933Z,4.20
2024-02-26T19:03:12.121Z,4.20
2024-02-26T19:05:39.383Z,4.10
2024-02-26T19:08:06.259Z,4.10
2024-02-26T19:10:33.578Z,4.10
2024-02-26T19:13:00.242Z,4.00
2024-02-26T19:15:28.102Z,4.00
2024-02-26T19:17:54.965Z,4.00
2024-02-26T19:20:21.733Z,4.00
2024-02-26T19:22:49.582Z,4.00
2024-02-26T19:25:16.758Z,4.00
2024-02-26T19:27:44.091Z,3.90
2024-02-26T19:30:12.302Z,3.90
2024-02-26T19:32:39.175Z,3.80
2024-02-26T19:35:06.617Z,3.80
2024-02-26T19:37:35.028Z,3.80
2024-02-26T19:40:01.972Z,3.80
2024-02-26T19:42:29.323Z,3.80
2024-02-26T19:44:56.460Z,3.70
2024-02-26T19:47:23.260Z,3.80
2024-02-26T19:49:50.458Z,3.70
2024-02-26T19:52:18.237Z,3.80
2024-02-26T19:54:44.891Z,3.80
2024-02-26T19:57:11.739Z,3.70
2024-02-26T19:59:38.560Z,3.70
2024-02-26T20:02:05.451Z,3.70
2024-02-26T20:04:32.358Z,3.70
2024-02-26T20:06:59.101Z,3.70
2024-02-26T20:09:31.418Z,3.70
2024-02-26T20:12:00.707Z,3.70
2024-02-26T20:14:29.577Z,3.70
2024-02-26T20:16:56.486Z,3.70
2024-02-26T20:19:23.386Z,3.60
2024-02-26T20:21:50.134Z,3.60
2024-02-26T20:24:18.276Z,3.50
2024-02-26T20:26:46.274Z,3.50
2024-02-26T20:29:12.989Z,3.50
2024-02-26T20:31:39.643Z,3.40
2024-02-26T20:34:06.687Z,3.30
2024-02-26T20:36:33.808Z,3.30
2024-02-26T20:39:00.577Z,3.20
2024-02-26T20:41:27.328Z,3.10
2024-02-26T20:43:53.973Z,3.10
2024-02-26T20:46:21.021Z,3.00
2024-02-26T20:48:47.868Z,3.00
2024-02-26T20:51:14.706Z,2.90
2024-02-26T20:53:42.404Z,2.90
2024-02-26T20:56:09.532Z,2.90
2024-02-26T20:58:37.118Z,2.80
2024-02-26T21:01:04.244Z,2.80
2024-02-26T21:03:31.121Z,2.70
2024-02-26T21:05:57.819Z,2.70
2024-02-26T21:08:33.036Z,2.70
2024-02-26T21:11:05.930Z,2.70
2024-02-26T21:13:33.036Z,2.60
2024-02-26T21:16:00.666Z,2.60
2024-02-26T21:18:27.606Z,2.60
2024-02-26T21:20:55.523Z,2.60
2024-02-26T21:23:22.486Z,2.60
2024-02-26T21:25:49.258Z,2.50
2024-02-26T21:28:16.042Z,2.50
2024-02-26T21:30:43.598Z,2.50
2024-02-26T21:33:10.616Z,2.50
2024-02-26T21:35:37.418Z,2.40
2024-02-26T21:38:06.590Z,2.40
2024-02-26T21:40:33.401Z,2.40
2024-02-26T21:43:00.028Z,2.40
2024-02-26T21:45:26.834Z,2.40
2024-02-26T21:47:53.642Z,2.30
2024-02-26T21:50:20.481Z,2.30
2024-02-26T21:52:47.153Z,2.20
2024-02-26T21:55:13.856Z,2.20
2024-02-26T21:57:40.849Z,2.20
2024-02-26T22:00:08.165Z,2.20
2024-02-26T22:02:34.957Z,2.20
2024-02-26T22:05:02.319Z,2.10
2024-02-26T22:07:29.168Z,2.10
2024-02-26T22:09:56.113Z,2.10
2024-02-26T22:12:22.790Z,2.00
2024-02-26T22:14:49.587Z,2.00
2024-02-26T22:17:16.338Z,2.00
2024-02-26T22:19:43.130Z,2.00
2024-02-26T22:22:09.774Z,2.00
2024-02-26T22:24:37.807Z,2.00
2024-02-26T22:27:04.874Z,2.00
2024-02-26T22:29:31.576Z,2.00
2024-02-26T22:32:00.721Z,2.00
2024-02-26T22:34:28.741Z,2.00
2024-02-26T22:36:55.548Z,2.00
2024-02-26T22:39:23.416Z,1.90
2024-02-26T22:41:50.203Z,1.90
2024-02-26T22:44:17.056Z,1.90
2024-02-26T22:46:43.927Z,1.90
2024-02-26T22:49:10.747Z,1.80
2024-02-26T22:51:37.571Z,1.80
2024-02-26T22:54:04.863Z,1.80
2024-02-26T22:56:31.555Z,1.80
2024-02-26T22:58:58.204Z,1.80
2024-02-26T23:01:25.510Z,1.70
2024-02-26T23:03:53.769Z,1.70
2024-02-26T23:06:20.572Z,1.60
2024-02-26T23:08:47.553Z,1.60
2024-02-26T23:11:14.575Z,1.60
2024-02-26T23:13:42.808Z,1.50
2024-02-26T23:16:10.082Z,1.50
2024-02-26T23:18:37.956Z,1.50
2024-02-26T23:21:05.094Z,1.50
2024-02-26T23:23:31.916Z,1.40
2024-02-26T23:25:58.697Z,1.40
2024-02-26T23:28:25.319Z,1.40
2024-02-26T23:30:52.083Z,1.30
2024-02-26T23:33:18.894Z,1.30
2024-02-26T23:35:45.655Z,1.30
2024-02-26T23:38:12.356Z,1.20
2024-02-26T23:40:39.029Z,1.10
2024-02-26T23:43:05.719Z,1.10
2024-02-26T23:45:32.574Z,1.10
2024-02-26T23:47:59.542Z,1.10
2024-02-26T23:50:28.706Z,1.10
2024-02-26T23:52:55.537Z,1.10
2024-02-26T23:55:22.272Z,1.10
2024-02-26T23:57:48.965Z,1.10
